Time;durP1;ratioP1;P1;durP2;ratioP2;P2;SDS_P1;SDS_P2;PMS_P1;PMS_P2;Temp;Humidity;BMP_temperature;BMP_pressure;BME280_temperature;BME280_humidity;BME280_pressure;Samples;Min_cycle;Max_cycle;Signal;HPM_P1;HPM_P2
2022/02/22 00:00:46;;;;;;;5.88;2.65;;;;;;;;;;5020749;28;20203;-84
2022/02/22 00:14:19;;;;;;;7.80;2.85;;;;;;;;;;5021557;28;20233;-83
2022/02/22 00:24:09;;;;;;;9.65;3.55;;;;;;;;;;5021009;28;20670;-84
2022/02/22 00:26:36;;;;;;;7.97;3.17;;;;;;;;;;5020436;28;20199;-84
2022/02/22 00:29:03;;;;;;;11.25;3.00;;;;;;;;;;5019399;28;20199;-84
2022/02/22 00:31:32;;;;;;;12.50;3.95;;;;;;;;;;5019197;28;20205;-83
2022/02/22 00:33:59;;;;;;;11.48;4.80;;;;;;;;;;5020947;28;20202;-82
2022/02/22 00:36:26;;;;;;;16.40;4.10;;;;;;;;;;5019630;28;20231;-84
2022/02/22 00:38:54;;;;;;;19.23;5.82;;;;;;;;;;5019342;28;20203;-84
2022/02/22 00:41:21;;;;;;;9.38;3.17;;;;;;;;;;5018319;28;20213;-83
2022/02/22 00:43:48;;;;;;;14.27;4.65;;;;;;;;;;5016384;28;20214;-83
2022/02/22 00:46:16;;;;;;;12.43;3.88;;;;;;;;;;5018104;28;20235;-84
2022/02/22 00:48:44;;;;;;;11.85;3.50;;;;;;;;;;5018566;28;20230;-83
2022/02/22 00:51:12;;;;;;;12.43;3.40;;;;;;;;;;5018472;28;20249;-83
2022/02/22 00:53:39;;;;;;;14.10;4.63;;;;;;;;;;5019890;28;20206;-83
2022/02/22 00:56:06;;;;;;;14.00;4.43;;;;;;;;;;5019860;28;20238;-85
2022/02/22 00:58:34;;;;;;;11.50;4.30;;;;;;;;;;5020684;28;20195;-84
2022/02/22 01:01:01;;;;;;;13.52;4.40;;;;;;;;;;5022206;28;20211;-84
2022/02/22 01:03:28;;;;;;;22.25;4.45;;;;;;;;;;5019891;28;20207;-84
2022/02/22 01:05:57;;;;;;;11.23;3.08;;;;;;;;;;5020162;28;20227;-83
2022/02/22 01:08:24;;;;;;;12.98;3.47;;;;;;;;;;5017651;28;20233;-82
2022/02/22 01:10:51;;;;;;;9.90;3.40;;;;;;;;;;5018535;28;20209;-83
2022/02/22 01:13:20;;;;;;;11.57;4.40;;;;;;;;;;5016834;28;20203;-82
2022/02/22 01:15:48;;;;;;;14.68;4.75;;;;;;;;;;5018092;28;20230;-83
2022/02/22 01:18:15;;;;;;;11.82;4.18;;;;;;;;;;5017969;28;20210;-82
2022/02/22 01:20:42;;;;;;;13.68;5.63;;;;;;;;;;5017908;28;20199;-83
2022/02/22 01:23:11;;;;;;;16.15;4.47;;;;;;;;;;5016772;28;20211;-82
2022/02/22 01:25:38;;;;;;;14.18;5.00;;;;;;;;;;5018050;28;20269;-83
2022/02/22 01:28:05;;;;;;;11.30;3.13;;;;;;;;;;5019175;28;20268;-82
2022/02/22 01:30:33;;;;;;;11.93;3.42;;;;;;;;;;5016093;28;20210;-82
2022/02/22 01:33:01;;;;;;;17.92;4.72;;;;;;;;;;5016383;28;20203;-82
2022/02/22 01:35:28;;;;;;;12.38;4.78;;;;;;;;;;5016893;28;20235;-82
2022/02/22 01:37:55;;;;;;;12.00;4.32;;;;;;;;;;5017213;28;20249;-82
2022/02/22 01:40:26;;;;;;;13.73;4.55;;;;;;;;;;5017409;28;20214;-82
2022/02/22 01:42:53;;;;;;;12.45;4.03;;;;;;;;;;5020624;28;20663;-82
2022/02/22 01:45:23;;;;;;;10.32;4.80;;;;;;;;;;5021000;28;20218;-82
2022/02/22 01:47:50;;;;;;;11.27;3.53;;;;;;;;;;5021044;28;20231;-82
2022/02/22 01:50:18;;;;;;;18.38;4.35;;;;;;;;;;5020622;28;20291;-83
2022/02/22 01:52:45;;;;;;;16.02;4.20;;;;;;;;;;5020094;28;20612;-82
2022/02/22 01:55:13;;;;;;;9.48;3.28;;;;;;;;;;5020175;28;20223;-83
2022/02/22 01:57:41;;;;;;;18.98;4.85;;;;;;;;;;5020416;28;20199;-82
2022/02/22 02:00:11;;;;;;;23.17;4.80;;;;;;;;;;5019595;28;20203;-83
2022/02/22 02:02:38;;;;;;;16.77;4.97;;;;;;;;;;5019965;28;20210;-82
2022/02/22 02:05:07;;;;;;;12.18;3.40;;;;;;;;;;5020256;28;20738;-82
2022/02/22 02:07:35;;;;;;;13.18;4.50;;;;;;;;;;5020066;28;20562;-82
2022/02/22 02:10:03;;;;;;;13.68;4.18;;;;;;;;;;5019660;28;20210;-82
2022/02/22 02:12:37;;;;;;;15.65;4.22;;;;;;;;;;5019293;28;20195;-82
2022/02/22 02:15:07;;;;;;;14.30;5.63;;;;;;;;;;5019687;28;20257;-82
2022/02/22 02:17:35;;;;;;;8.35;3.35;;;;;;;;;;5019121;28;20660;-82
2022/02/22 02:20:03;;;;;;;9.23;3.13;;;;;;;;;;5019721;28;20237;-82
2022/02/22 02:22:32;;;;;;;14.13;5.00;;;;;;;;;;5018885;28;20280;-82
2022/02/22 02:24:59;;;;;;;17.80;4.53;;;;;;;;;;5018767;28;20711;-82
2022/02/22 02:27:26;;;;;;;8.40;3.58;;;;;;;;;;5021691;28;20265;-81
2022/02/22 02:29:59;;;;;;;8.52;3.08;;;;;;;;;;5019408;28;20733;-82
2022/02/22 02:32:26;;;;;;;17.13;4.82;;;;;;;;;;5019754;28;20199;-82
2022/02/22 02:34:54;;;;;;;12.63;3.80;;;;;;;;;;5019198;28;20235;-82
2022/02/22 02:37:21;;;;;;;15.48;5.15;;;;;;;;;;5019529;28;20207;-83
2022/02/22 02:39:50;;;;;;;15.45;4.50;;;;;;;;;;5019724;28;20207;-82
2022/02/22 02:42:18;;;;;;;16.95;4.40;;;;;;;;;;5019868;28;20213;-82
2022/02/22 02:44:47;;;;;;;16.02;4.53;;;;;;;;;;5019564;28;20282;-82
2022/02/22 02:47:16;;;;;;;15.10;3.63;;;;;;;;;;5019466;28;20207;-82
2022/02/22 02:49:44;;;;;;;17.17;6.25;;;;;;;;;;5019226;28;20219;-82
2022/02/22 02:52:12;;;;;;;16.77;5.15;;;;;;;;;;5018768;28;20206;-82
2022/02/22 02:54:40;;;;;;;13.05;3.70;;;;;;;;;;5019634;28;20223;-82
2022/02/22 02:57:09;;;;;;;14.98;4.20;;;;;;;;;;5019344;28;20203;-82
2022/02/22 02:59:36;;;;;;;13.52;5.35;;;;;;;;;;5019130;28;20207;-82
2022/02/22 03:02:03;;;;;;;17.20;4.50;;;;;;;;;;5019376;28;20206;-82
2022/02/22 03:04:31;;;;;;;16.63;4.50;;;;;;;;;;5021261;28;20233;-81
2022/02/22 03:06:58;;;;;;;9.18;4.60;;;;;;;;;;5024691;28;20202;-81
2022/02/22 03:09:25;;;;;;;11.38;3.85;;;;;;;;;;5021440;28;20223;-82
2022/02/22 03:11:52;;;;;;;17.83;5.00;;;;;;;;;;5019506;28;20641;-82
2022/02/22 03:14:21;;;;;;;10.40;3.85;;;;;;;;;;5020427;28;20639;-82
2022/02/22 03:16:49;;;;;;;14.50;4.30;;;;;;;;;;5018693;28;20277;-82
2022/02/22 03:19:16;;;;;;;13.40;3.65;;;;;;;;;;5018749;28;20672;-82
2022/02/22 03:21:43;;;;;;;12.07;3.60;;;;;;;;;;5018137;28;20679;-82
2022/02/22 03:24:11;;;;;;;15.75;5.22;;;;;;;;;;5018887;28;20993;-81
2022/02/22 03:26:38;;;;;;;10.38;4.43;;;;;;;;;;5019180;28;20581;-82
2022/02/22 03:29:05;;;;;;;13.05;4.78;;;;;;;;;;5020106;28;20223;-82
2022/02/22 03:31:34;;;;;;;7.45;3.10;;;;;;;;;;5018579;28;20210;-82
2022/02/22 03:34:01;;;;;;;13.25;3.75;;;;;;;;;;5018443;28;20261;-82
2022/02/22 03:36:29;;;;;;;18.98;4.85;;;;;;;;;;5018392;28;20207;-82
2022/02/22 03:38:56;;;;;;;12.35;4.28;;;;;;;;;;5016797;28;20206;-82
2022/02/22 03:41:27;;;;;;;13.02;4.78;;;;;;;;;;5017420;28;20209;-82
2022/02/22 03:43:54;;;;;;;14.48;4.78;;;;;;;;;;5018667;28;20226;-82
2022/02/22 03:46:22;;;;;;;9.65;3.50;;;;;;;;;;5017410;28;20729;-81
2022/02/22 03:48:50;;;;;;;14.23;3.95;;;;;;;;;;5017894;28;20245;-81
2022/02/22 03:51:18;;;;;;;10.15;4.80;;;;;;;;;;5017870;28;20822;-82
2022/02/22 03:53:45;;;;;;;14.02;4.22;;;;;;;;;;5017889;28;20211;-82
2022/02/22 03:56:12;;;;;;;11.10;4.22;;;;;;;;;;5017700;28;20253;-82
2022/02/22 03:58:39;;;;;;;16.40;4.82;;;;;;;;;;5018211;28;20196;-82
2022/02/22 04:01:07;;;;;;;15.95;4.72;;;;;;;;;;5019055;28;20191;-82
2022/02/22 04:03:34;;;;;;;20.60;5.80;;;;;;;;;;5018080;28;20207;-82
2022/02/22 04:06:03;;;;;;;18.63;3.83;;;;;;;;;;5018002;28;20227;-82
2022/02/22 04:08:30;;;;;;;15.90;4.50;;;;;;;;;;5019435;28;20211;-82
2022/02/22 04:10:57;;;;;;;11.40;4.47;;;;;;;;;;5018361;28;20225;-81
2022/02/22 04:13:24;;;;;;;9.60;3.70;;;;;;;;;;5017182;28;20210;-82
2022/02/22 04:15:52;;;;;;;12.80;4.47;;;;;;;;;;5016941;28;20222;-82
2022/02/22 04:18:19;;;;;;;12.27;4.10;;;;;;;;;;5016878;28;20199;-82
2022/02/22 04:20:47;;;;;;;30.70;6.80;;;;;;;;;;5016993;28;20203;-83
2022/02/22 04:23:15;;;;;;;6.35;3.17;;;;;;;;;;5016526;28;20211;-82
2022/02/22 04:25:43;;;;;;;12.85;3.97;;;;;;;;;;5016745;28;20730;-81
2022/02/22 04:28:10;;;;;;;15.60;5.35;;;;;;;;;;5016846;28;20592;-82
2022/02/22 04:30:38;;;;;;;6.70;4.07;;;;;;;;;;5017254;28;20258;-82
2022/02/22 04:33:05;;;;;;;15.90;4.45;;;;;;;;;;5016307;28;20261;-82
2022/02/22 04:35:32;;;;;;;10.45;3.50;;;;;;;;;;5036571;22;20226;-84
2022/02/22 04:37:59;;;;;;;10.80;4.05;;;;;;;;;;5036404;28;20197;-84
2022/02/22 04:40:29;;;;;;;15.05;4.50;;;;;;;;;;5036788;28;20194;-83
2022/02/22 04:42:57;;;;;;;14.82;4.68;;;;;;;;;;5035617;28;20202;-84
2022/02/22 04:45:24;;;;;;;14.85;4.75;;;;;;;;;;5035297;28;20230;-83
2022/02/22 04:47:55;;;;;;;7.45;3.28;;;;;;;;;;5034101;28;20199;-83
2022/02/22 04:50:23;;;;;;;10.65;3.88;;;;;;;;;;5034343;28;20226;-84
2022/02/22 04:52:50;;;;;;;11.75;4.50;;;;;;;;;;5033654;28;20200;-84
2022/02/22 04:55:19;;;;;;;11.07;3.38;;;;;;;;;;5033509;28;20218;-84
2022/02/22 04:57:48;;;;;;;9.90;2.90;;;;;;;;;;5034415;28;20206;-84
2022/02/22 05:00:17;;;;;;;6.40;3.08;;;;;;;;;;5032997;28;20623;-84
2022/02/22 05:02:45;;;;;;;10.15;3.83;;;;;;;;;;5033402;28;20213;-85
2022/02/22 05:05:12;;;;;;;13.55;4.15;;;;;;;;;;5033421;28;20648;-83
2022/02/22 05:07:39;;;;;;;8.23;3.60;;;;;;;;;;5033904;28;20245;-84
2022/02/22 05:10:08;;;;;;;17.30;4.53;;;;;;;;;;5034556;28;20230;-84
2022/02/22 05:12:35;;;;;;;9.35;2.95;;;;;;;;;;5034099;28;20206;-85
2022/02/22 05:15:05;;;;;;;10.32;4.18;;;;;;;;;;5034791;28;20230;-84
2022/02/22 05:17:32;;;;;;;9.18;3.45;;;;;;;;;;5039271;28;20202;-83
2022/02/22 05:19:59;;;;;;;10.15;3.40;;;;;;;;;;5038401;28;20198;-85
2022/02/22 05:22:27;;;;;;;24.58;6.13;;;;;;;;;;5038345;28;20202;-84
2022/02/22 05:24:54;;;;;;;10.48;3.85;;;;;;;;;;5037818;28;20226;-84
2022/02/22 05:27:21;;;;;;;13.50;4.45;;;;;;;;;;5039910;28;20209;-84
2022/02/22 05:29:49;;;;;;;14.15;3.53;;;;;;;;;;5039024;28;20233;-83
2022/02/22 05:32:17;;;;;;;14.32;4.57;;;;;;;;;;5038224;28;20210;-84
2022/02/22 05:34:44;;;;;;;9.77;3.15;;;;;;;;;;5037337;28;20209;-84
2022/02/22 05:37:12;;;;;;;8.57;3.40;;;;;;;;;;5038503;28;20202;-83
2022/02/22 05:39:39;;;;;;;11.77;4.03;;;;;;;;;;5038796;28;20260;-84
2022/02/22 05:42:08;;;;;;;7.45;3.58;;;;;;;;;;5037134;28;20693;-83
2022/02/22 05:44:35;;;;;;;9.38;3.53;;;;;;;;;;5037833;28;20221;-83
2022/02/22 05:47:02;;;;;;;7.10;2.85;;;;;;;;;;5037457;28;20207;-85
2022/02/22 05:49:31;;;;;;;7.38;2.70;;;;;;;;;;5038296;28;20210;-84
2022/02/22 05:51:58;;;;;;;7.40;2.13;;;;;;;;;;5036690;28;20250;-85
2022/02/22 05:54:25;;;;;;;7.18;3.65;;;;;;;;;;5038715;28;20213;-84
2022/02/22 05:56:53;;;;;;;6.78;2.72;;;;;;;;;;5037614;28;20226;-83
2022/02/22 05:59:20;;;;;;;5.90;2.83;;;;;;;;;;5037487;28;20619;-84
2022/02/22 06:01:48;;;;;;;12.88;3.60;;;;;;;;;;5037096;28;20194;-83
2022/02/22 06:04:15;;;;;;;8.38;2.60;;;;;;;;;;5038249;28;20194;-84
2022/02/22 06:06:44;;;;;;;3.67;2.10;;;;;;;;;;5036876;28;20761;-84
2022/02/22 06:09:12;;;;;;;8.05;2.67;;;;;;;;;;5036674;28;20213;-84
2022/02/22 06:11:40;;;;;;;13.60;3.15;;;;;;;;;;5036707;28;20706;-83
2022/02/22 06:14:07;;;;;;;7.38;2.72;;;;;;;;;;5035902;28;20202;-84
2022/02/22 06:16:35;;;;;;;8.73;2.78;;;;;;;;;;5037328;28;20229;-84
2022/02/22 06:19:02;;;;;;;10.27;3.08;;;;;;;;;;5035515;28;20691;-84
2022/02/22 06:21:30;;;;;;;7.07;3.40;;;;;;;;;;5036499;28;20225;-84
2022/02/22 06:23:58;;;;;;;9.98;4.00;;;;;;;;;;5035360;28;20202;-83
2022/02/22 06:26:25;;;;;;;9.82;3.67;;;;;;;;;;5036054;28;20230;-84
2022/02/22 06:28:53;;;;;;;7.85;2.80;;;;;;;;;;5036190;28;20209;-84
2022/02/22 06:31:20;;;;;;;12.68;3.08;;;;;;;;;;5037048;28;20698;-84
2022/02/22 06:33:47;;;;;;;9.30;3.40;;;;;;;;;;5036780;28;20249;-85
2022/02/22 06:36:15;;;;;;;5.68;2.55;;;;;;;;;;5036998;28;20234;-83
2022/02/22 06:38:42;;;;;;;10.18;3.30;;;;;;;;;;5036694;28;20701;-86
2022/02/22 06:41:10;;;;;;;7.70;2.67;;;;;;;;;;5037061;28;20210;-84
2022/02/22 06:43:38;;;;;;;12.20;3.90;;;;;;;;;;5037610;28;20689;-84
2022/02/22 06:46:05;;;;;;;6.93;3.28;;;;;;;;;;5037458;28;20229;-84
2022/02/22 06:48:32;;;;;;;6.95;2.83;;;;;;;;;;5037659;28;20209;-83
2022/02/22 06:51:00;;;;;;;8.07;3.38;;;;;;;;;;5037931;28;20630;-83
2022/02/22 06:53:27;;;;;;;14.18;5.38;;;;;;;;;;5036335;28;20233;-83
2022/02/22 06:55:54;;;;;;;9.35;3.75;;;;;;;;;;5035954;28;20230;-84
2022/02/22 06:58:23;;;;;;;10.55;3.72;;;;;;;;;;5034862;28;20256;-84
2022/02/22 07:00:51;;;;;;;19.15;4.50;;;;;;;;;;5035340;28;20576;-82
2022/02/22 07:03:18;;;;;;;7.93;3.00;;;;;;;;;;5034334;28;20744;-84
2022/02/22 07:05:46;;;;;;;8.85;2.95;;;;;;;;;;5033857;28;20218;-84
2022/02/22 07:08:13;;;;;;;7.57;3.50;;;;;;;;;;5034611;28;20256;-84
2022/02/22 07:10:41;;;;;;;12.35;3.65;;;;;;;;;;5035297;28;20253;-83
2022/02/22 07:13:08;;;;;;;7.53;2.75;;;;;;;;;;5033141;28;20210;-84
2022/02/22 07:15:37;;;;;;;7.85;3.00;;;;;;;;;;5034054;28;20233;-84
2022/02/22 07:18:07;;;;;;;6.22;3.03;;;;;;;;;;5035474;28;20206;-83
2022/02/22 07:20:34;;;;;;;8.88;3.80;;;;;;;;;;5034254;28;20210;-83
2022/02/22 07:23:02;;;;;;;12.55;3.95;;;;;;;;;;5035074;28;20293;-83
2022/02/22 07:25:31;;;;;;;4.88;2.20;;;;;;;;;;5034611;28;20231;-83
2022/02/22 07:28:01;;;;;;;10.85;4.13;;;;;;;;;;5035751;28;20207;-82
2022/02/22 07:30:30;;;;;;;7.15;2.78;;;;;;;;;;5035230;28;20229;-83
2022/02/22 07:33:01;;;;;;;8.23;2.70;;;;;;;;;;5034463;28;20307;-83
2022/02/22 07:35:30;;;;;;;12.93;4.57;;;;;;;;;;5034814;28;20222;-84
2022/02/22 07:37:57;;;;;;;10.55;3.88;;;;;;;;;;5033999;28;20214;-82
2022/02/22 07:40:27;;;;;;;9.13;3.67;;;;;;;;;;5034262;28;20206;-83
2022/02/22 07:42:55;;;;;;;11.23;4.00;;;;;;;;;;5034054;28;20242;-83
2022/02/22 07:45:23;;;;;;;6.80;3.65;;;;;;;;;;5035474;28;20233;-83
2022/02/22 07:47:50;;;;;;;9.88;3.45;;;;;;;;;;5036581;28;20202;-84
2022/02/22 07:50:19;;;;;;;7.80;3.38;;;;;;;;;;5034474;28;20221;-83
2022/02/22 07:52:46;;;;;;;8.43;4.38;;;;;;;;;;5034700;28;20232;-84
2022/02/22 07:55:14;;;;;;;9.18;5.65;;;;;;;;;;5035019;28;20230;-84
2022/02/22 07:57:42;;;;;;;8.20;4.13;;;;;;;;;;5034823;28;20628;-83
2022/02/22 08:00:10;;;;;;;9.63;3.35;;;;;;;;;;5034362;28;20767;-84
2022/02/22 08:02:38;;;;;;;12.82;4.70;;;;;;;;;;5034608;28;20210;-83
2022/02/22 08:05:07;;;;;;;11.93;3.08;;;;;;;;;;5035084;28;20234;-83
2022/02/22 08:07:37;;;;;;;14.85;4.35;;;;;;;;;;5033555;28;20203;-81
2022/02/22 08:10:05;;;;;;;9.63;3.90;;;;;;;;;;5033421;28;20206;-82
2022/02/22 08:12:32;;;;;;;9.50;3.90;;;;;;;;;;5034247;28;20568;-82
2022/02/22 08:14:59;;;;;;;10.18;3.67;;;;;;;;;;5033630;28;20222;-81
2022/02/22 08:17:27;;;;;;;6.72;3.05;;;;;;;;;;5033499;28;20237;-83
2022/02/22 08:19:54;;;;;;;8.77;3.65;;;;;;;;;;5033486;28;20206;-84
2022/02/22 08:22:21;;;;;;;10.70;3.70;;;;;;;;;;5034417;28;20615;-84
2022/02/22 08:24:50;;;;;;;5.60;2.72;;;;;;;;;;5036212;28;20221;-84
2022/02/22 08:27:19;;;;;;;11.85;4.00;;;;;;;;;;5036181;28;20210;-84
2022/02/22 08:29:46;;;;;;;21.00;4.40;;;;;;;;;;5036819;28;20210;-83
2022/02/22 08:32:13;;;;;;;9.90;3.40;;;;;;;;;;5034389;28;20236;-85
2022/02/22 08:34:40;;;;;;;9.20;3.70;;;;;;;;;;5035019;28;20256;-82
2022/02/22 08:37:08;;;;;;;6.22;2.55;;;;;;;;;;5034993;28;20214;-83
2022/02/22 08:39:36;;;;;;;5.95;2.65;;;;;;;;;;5036110;28;20264;-85
2022/02/22 08:42:09;;;;;;;6.82;3.00;;;;;;;;;;5032981;28;20260;-82
2022/02/22 08:44:36;;;;;;;7.57;3.00;;;;;;;;;;5033198;28;20206;-82
2022/02/22 08:47:05;;;;;;;7.55;2.55;;;;;;;;;;5032504;28;20209;-83
2022/02/22 08:49:33;;;;;;;9.68;3.17;;;;;;;;;;5032902;28;20206;-82
2022/02/22 08:52:01;;;;;;;5.15;2.72;;;;;;;;;;5033077;28;20295;-82
2022/02/22 08:54:28;;;;;;;6.97;2.30;;;;;;;;;;5033708;28;20213;-85
2022/02/22 08:56:55;;;;;;;3.70;1.70;;;;;;;;;;5032797;28;20268;-84
2022/02/22 08:59:24;;;;;;;8.65;4.35;;;;;;;;;;5033053;28;20202;-83
2022/02/22 09:01:53;;;;;;;5.20;2.47;;;;;;;;;;5032134;28;20217;-85
2022/02/22 09:04:20;;;;;;;7.05;3.50;;;;;;;;;;5032535;28;20585;-83
2022/02/22 09:06:47;;;;;;;10.38;3.97;;;;;;;;;;5032434;28;20717;-83
2022/02/22 09:09:14;;;;;;;5.82;2.65;;;;;;;;;;5032824;28;20580;-84
2022/02/22 09:11:42;;;;;;;12.60;3.47;;;;;;;;;;5032498;28;20198;-83
2022/02/22 09:14:09;;;;;;;7.40;4.45;;;;;;;;;;5032164;28;20214;-83
2022/02/22 09:16:37;;;;;;;13.60;4.80;;;;;;;;;;5031801;28;20234;-84
2022/02/22 09:19:05;;;;;;;10.65;4.38;;;;;;;;;;5032004;28;20209;-84
2022/02/22 09:21:33;;;;;;;9.85;3.42;;;;;;;;;;5032310;28;20249;-85
2022/02/22 09:24:00;;;;;;;6.97;2.20;;;;;;;;;;5032049;28;20685;-84
2022/02/22 09:26:27;;;;;;;7.75;3.65;;;;;;;;;;5031870;28;20706;-82
2022/02/22 09:28:56;;;;;;;9.85;3.20;;;;;;;;;;5031680;28;20281;-84
2022/02/22 09:31:25;;;;;;;7.65;2.92;;;;;;;;;;5032062;28;20642;-83
2022/02/22 09:33:54;;;;;;;6.40;3.25;;;;;;;;;;5031748;28;20257;-84
2022/02/22 09:36:21;;;;;;;8.38;3.20;;;;;;;;;;5031224;28;20230;-84
2022/02/22 09:38:48;;;;;;;15.63;4.63;;;;;;;;;;5032075;28;20242;-83
2022/02/22 09:41:16;;;;;;;5.03;2.97;;;;;;;;;;5031453;28;20218;-81
2022/02/22 09:43:43;;;;;;;9.10;3.78;;;;;;;;;;5031152;28;20211;-84
2022/02/22 09:46:11;;;;;;;6.70;2.88;;;;;;;;;;5030625;28;20827;-84
2022/02/22 09:48:39;;;;;;;5.97;3.10;;;;;;;;;;5031344;28;20225;-84
2022/02/22 09:51:07;;;;;;;7.57;3.08;;;;;;;;;;5032004;28;20214;-83
2022/02/22 09:53:37;;;;;;;13.93;4.07;;;;;;;;;;5031581;28;20222;-84
2022/02/22 09:56:06;;;;;;;5.65;2.65;;;;;;;;;;5032105;28;20635;-83
2022/02/22 09:58:33;;;;;;;4.97;2.40;;;;;;;;;;5031866;28;20214;-84
2022/02/22 10:01:02;;;;;;;8.52;2.45;;;;;;;;;;5031188;28;20213;-86
2022/02/22 10:03:30;;;;;;;6.60;2.28;;;;;;;;;;5034190;28;20202;-85
2022/02/22 10:05:59;;;;;;;5.82;2.30;;;;;;;;;;5034781;28;20218;-86
2022/02/22 10:08:30;;;;;;;5.35;2.28;;;;;;;;;;5028717;28;20260;-84
2022/02/22 10:11:03;;;;;;;6.22;3.05;;;;;;;;;;5029039;28;20587;-86
2022/02/22 10:13:31;;;;;;;4.13;1.95;;;;;;;;;;5034474;28;20226;-85
2022/02/22 10:15:59;;;;;;;5.35;2.22;;;;;;;;;;5034567;28;20430;-87
2022/02/22 10:18:26;;;;;;;6.47;2.38;;;;;;;;;;5034785;28;20210;-86
2022/02/22 10:20:54;;;;;;;9.20;3.10;;;;;;;;;;5034754;28;20218;-86
2022/02/22 10:23:31;;;;;;;10.18;3.38;;;;;;;;;;5034440;28;20713;-87
2022/02/22 10:26:00;;;;;;;8.23;3.80;;;;;;;;;;5034505;28;20222;-84
2022/02/22 10:28:27;;;;;;;6.05;2.50;;;;;;;;;;5034559;28;20213;-85
2022/02/22 10:30:55;;;;;;;5.18;2.40;;;;;;;;;;5034328;28;20198;-85
2022/02/22 10:33:25;;;;;;;9.73;3.67;;;;;;;;;;5034243;28;20232;-85
2022/02/22 10:35:56;;;;;;;4.95;2.38;;;;;;;;;;5034302;28;20241;-86
2022/02/22 10:38:26;;;;;;;11.10;3.28;;;;;;;;;;5034241;28;20206;-84
2022/02/22 10:40:58;;;;;;;5.75;2.10;;;;;;;;;;5034596;28;20202;-85
2022/02/22 10:43:28;;;;;;;5.45;2.35;;;;;;;;;;5034104;28;20209;-86
2022/02/22 10:46:00;;;;;;;5.05;2.92;;;;;;;;;;5034253;28;20577;-86
2022/02/22 10:48:33;;;;;;;6.50;3.22;;;;;;;;;;5034315;28;20206;-85
2022/02/22 10:51:02;;;;;;;3.88;2.40;;;;;;;;;;5034266;28;20697;-85
2022/02/22 10:53:34;;;;;;;7.03;2.80;;;;;;;;;;5033709;28;20230;-86
2022/02/22 10:56:05;;;;;;;5.97;2.35;;;;;;;;;;5033894;28;20222;-85
2022/02/22 10:58:33;;;;;;;6.43;2.50;;;;;;;;;;5027926;28;20206;-85
2022/02/22 11:01:02;;;;;;;3.17;2.60;;;;;;;;;;5027725;28;20571;-85
2022/02/22 11:03:30;;;;;;;3.33;1.83;;;;;;;;;;5033723;28;20202;-85
2022/02/22 11:05:58;;;;;;;4.63;1.77;;;;;;;;;;5033660;28;20600;-86
2022/02/22 11:08:27;;;;;;;5.53;2.70;;;;;;;;;;5033853;28;20853;-86
2022/02/22 11:11:04;;;;;;;4.03;2.47;;;;;;;;;;5033929;28;20237;-86
2022/02/22 11:13:34;;;;;;;3.53;1.90;;;;;;;;;;5033288;28;20226;-86
2022/02/22 11:16:17;;;;;;;3.70;1.92;;;;;;;;;;5033432;28;20225;-86
2022/02/22 11:18:53;;;;;;;4.25;2.80;;;;;;;;;;5033379;28;20210;-86
2022/02/22 11:21:23;;;;;;;5.72;3.75;;;;;;;;;;5033680;28;20693;-86
2022/02/22 11:24:01;;;;;;;4.75;2.45;;;;;;;;;;5033439;28;20214;-86
2022/02/22 11:26:32;;;;;;;6.70;2.88;;;;;;;;;;5033508;28;20234;-87
2022/02/22 11:29:02;;;;;;;4.80;2.00;;;;;;;;;;5033677;28;20198;-86
2022/02/22 11:31:31;;;;;;;5.40;2.45;;;;;;;;;;5033450;28;20202;-86
2022/02/22 11:34:02;;;;;;;3.22;2.08;;;;;;;;;;5033185;28;20601;-86
2022/02/22 11:36:32;;;;;;;12.32;3.50;;;;;;;;;;5033095;28;20227;-86
2022/02/22 11:39:00;;;;;;;7.57;2.85;;;;;;;;;;5032843;28;20203;-86
2022/02/22 11:41:30;;;;;;;4.55;2.42;;;;;;;;;;5033116;28;20670;-86
2022/02/22 11:44:02;;;;;;;10.63;3.30;;;;;;;;;;5032821;28;20206;-86
2022/02/22 11:46:40;;;;;;;3.55;2.25;;;;;;;;;;5033174;28;20226;-87
2022/02/22 11:49:09;;;;;;;6.70;2.00;;;;;;;;;;5033051;28;20212;-85
2022/02/22 11:51:45;;;;;;;24.85;4.00;;;;;;;;;;5032867;28;20202;-84
2022/02/22 11:54:18;;;;;;;8.25;3.38;;;;;;;;;;5033038;28;20225;-87
2022/02/22 11:56:46;;;;;;;3.95;2.20;;;;;;;;;;5032882;28;20714;-87
2022/02/22 11:59:22;;;;;;;2.30;1.73;;;;;;;;;;5032748;28;20214;-86
2022/02/22 12:01:56;;;;;;;3.33;1.85;;;;;;;;;;5032436;28;20212;-87
2022/02/22 12:04:26;;;;;;;5.50;2.63;;;;;;;;;;5033097;28;20212;-86
2022/02/22 12:06:56;;;;;;;5.00;2.58;;;;;;;;;;5032870;28;20703;-87
2022/02/22 12:09:39;;;;;;;6.60;2.40;;;;;;;;;;5032860;28;20210;-86
2022/02/22 12:12:09;;;;;;;4.70;2.70;;;;;;;;;;5032464;28;20206;-87
2022/02/22 12:14:39;;;;;;;4.35;2.20;;;;;;;;;;5032647;28;20234;-87
2022/02/22 12:17:10;;;;;;;3.55;2.20;;;;;;;;;;5032667;28;20263;-87
2022/02/22 12:19:38;;;;;;;3.08;1.65;;;;;;;;;;5032933;28;20217;-86
2022/02/22 12:22:06;;;;;;;3.00;2.05;;;;;;;;;;5032079;28;20214;-87
2022/02/22 12:24:33;;;;;;;107.78;14.90;;;;;;;;;;5030677;28;20191;-87
2022/02/22 12:27:11;;;;;;;3.13;1.73;;;;;;;;;;5032306;28;20207;-86
2022/02/22 12:29:40;;;;;;;8.60;2.55;;;;;;;;;;5032397;28;20209;-89
2022/02/22 12:32:10;;;;;;;2.30;1.92;;;;;;;;;;5032596;28;20210;-85
2022/02/22 12:34:37;;;;;;;5.35;1.65;;;;;;;;;;5032335;28;20227;-86
2022/02/22 12:37:06;;;;;;;3.25;2.40;;;;;;;;;;5031889;28;20214;-86
2022/02/22 12:39:35;;;;;;;2.70;2.22;;;;;;;;;;5026399;28;20372;-86
2022/02/22 12:42:04;;;;;;;1.45;1.35;;;;;;;;;;5032056;28;20202;-86
2022/02/22 12:44:31;;;;;;;3.53;1.80;;;;;;;;;;5032014;28;20245;-87
2022/02/22 12:47:01;;;;;;;9.25;3.00;;;;;;;;;;5032182;28;20230;-86
2022/02/22 12:49:29;;;;;;;3.13;1.85;;;;;;;;;;5032425;28;20226;-85
2022/02/22 12:52:02;;;;;;;1.48;1.20;;;;;;;;;;5031670;28;20206;-84
2022/02/22 12:54:32;;;;;;;3.58;1.67;;;;;;;;;;5032386;28;20272;-87
2022/02/22 12:57:03;;;;;;;2.55;2.15;;;;;;;;;;5032177;28;20202;-87
2022/02/22 12:59:35;;;;;;;3.42;2.15;;;;;;;;;;5032186;28;20689;-88
2022/02/22 13:02:06;;;;;;;5.60;2.30;;;;;;;;;;5032022;28;20218;-86
2022/02/22 13:04:36;;;;;;;2.15;1.52;;;;;;;;;;5031915;28;20577;-86
2022/02/22 13:07:11;;;;;;;4.43;1.90;;;;;;;;;;5032255;28;20218;-88
2022/02/22 13:09:38;;;;;;;2.33;1.65;;;;;;;;;;5031927;28;20194;-86
2022/02/22 13:12:08;;;;;;;2.13;1.38;;;;;;;;;;5031744;28;20210;-88
2022/02/22 13:14:39;;;;;;;3.22;1.40;;;;;;;;;;5031641;28;20230;-88
2022/02/22 13:17:09;;;;;;;4.53;1.83;;;;;;;;;;5031663;28;20264;-87
2022/02/22 13:19:38;;;;;;;3.28;1.80;;;;;;;;;;5031941;28;20209;-87
2022/02/22 13:22:22;;;;;;;4.57;2.20;;;;;;;;;;5031794;28;20206;-87
2022/02/22 13:24:57;;;;;;;4.18;2.47;;;;;;;;;;5031704;28;20202;-86
2022/02/22 13:27:26;;;;;;;2.92;2.28;;;;;;;;;;5031608;28;20232;-87
2022/02/22 13:29:58;;;;;;;3.03;1.88;;;;;;;;;;5031997;28;20627;-87
2022/02/22 13:32:31;;;;;;;3.47;1.63;;;;;;;;;;5032182;28;20220;-86
2022/02/22 13:34:59;;;;;;;4.05;2.05;;;;;;;;;;5033083;28;20229;-87
2022/02/22 13:37:28;;;;;;;4.00;2.38;;;;;;;;;;5036429;28;20252;-87
2022/02/22 13:40:06;;;;;;;5.20;1.80;;;;;;;;;;5037771;28;20593;-87
2022/02/22 13:42:34;;;;;;;2.50;1.30;;;;;;;;;;5038881;28;20205;-86
2022/02/22 13:45:02;;;;;;;2.92;1.67;;;;;;;;;;5039724;28;20229;-87
2022/02/22 13:47:32;;;;;;;5.55;1.95;;;;;;;;;;5038861;28;20210;-86
2022/02/22 13:50:00;;;;;;;7.95;4.85;;;;;;;;;;5037876;28;20686;-85
2022/02/22 13:52:27;;;;;;;8.40;2.63;;;;;;;;;;5033770;28;20209;-85
2022/02/22 13:54:54;;;;;;;4.93;2.10;;;;;;;;;;5035510;28;20234;-88
2022/02/22 13:57:22;;;;;;;16.48;3.95;;;;;;;;;;5035358;28;20202;-86
2022/02/22 13:59:52;;;;;;;3.47;1.65;;;;;;;;;;5035334;28;20229;-85
2022/02/22 14:02:29;;;;;;;3.92;2.00;;;;;;;;;;5033560;28;20687;-86
2022/02/22 14:04:57;;;;;;;3.50;1.85;;;;;;;;;;5028031;28;20620;-83
2022/02/22 14:07:24;;;;;;;3.92;2.50;;;;;;;;;;5035916;28;20206;-84
2022/02/22 14:09:52;;;;;;;1.63;1.13;;;;;;;;;;5036084;28;20221;-83
2022/02/22 14:12:19;;;;;;;9.50;3.75;;;;;;;;;;5036174;28;20214;-84
2022/02/22 14:14:46;;;;;;;4.50;2.20;;;;;;;;;;5031664;28;20203;-84
2022/02/22 14:17:14;;;;;;;2.53;1.98;;;;;;;;;;5033731;28;20217;-85
2022/02/22 14:19:41;;;;;;;1.58;1.48;;;;;;;;;;5033060;28;20261;-84
2022/02/22 14:22:10;;;;;;;7.10;3.38;;;;;;;;;;5032862;28;20229;-84
2022/02/22 14:24:37;;;;;;;6.43;2.42;;;;;;;;;;5032017;28;20233;-85
2022/02/22 14:27:05;;;;;;;1.48;1.30;;;;;;;;;;5030931;28;20259;-84
2022/02/22 14:29:32;;;;;;;3.17;1.75;;;;;;;;;;5031393;28;20225;-85
2022/02/22 14:31:59;;;;;;;2.10;1.45;;;;;;;;;;5030964;28;20688;-85
2022/02/22 14:34:26;;;;;;;2.85;1.67;;;;;;;;;;5031729;28;20588;-84
2022/02/22 14:36:54;;;;;;;2.65;1.65;;;;;;;;;;5037588;28;20608;-85
2022/02/22 14:39:22;;;;;;;4.03;1.90;;;;;;;;;;5036668;28;20210;-85
2022/02/22 14:41:50;;;;;;;4.85;1.98;;;;;;;;;;5036737;28;20249;-85
2022/02/22 14:44:17;;;;;;;4.20;1.73;;;;;;;;;;5037926;28;20260;-84
2022/02/22 14:46:46;;;;;;;5.60;1.50;;;;;;;;;;5036626;28;20237;-85
2022/02/22 14:49:13;;;;;;;1.77;1.13;;;;;;;;;;5036330;28;20206;-85
2022/02/22 14:51:40;;;;;;;3.38;1.70;;;;;;;;;;5036400;28;20264;-85
2022/02/22 14:54:08;;;;;;;3.05;1.95;;;;;;;;;;5035947;28;20202;-84
2022/02/22 14:56:37;;;;;;;4.65;2.03;;;;;;;;;;5035274;28;20226;-85
2022/02/22 14:59:05;;;;;;;3.33;3.03;;;;;;;;;;5035349;28;20210;-84
2022/02/22 15:01:32;;;;;;;2.92;1.92;;;;;;;;;;5035035;28;20229;-85
2022/02/22 15:04:00;;;;;;;2.50;2.10;;;;;;;;;;5034238;28;20268;-85